Terminal Aerodrome Forecast
Issued by NWS

Home | Current Version | Previous Version | Text Only | Print | Product List | Glossary On
Versions: 1 2 3 4 5 6 7 8 9 10 11 12 13 14 15
000
FTUS44 KTSA 302338
TAFMLC
TAF
KMLC 302338Z 3100/3124 12007KT P6SM VCSH BKN080
     FM310100 13003KT P6SM SCT050
     FM311000 13002KT P6SM BKN025
     FM311400 15005KT P6SM BKN035 PROB30 3115/3118 3SM TSRA BKN025CB
     FM311800 19008KT P6SM BKN045 PROB30 3118/3124 5SM -TSRA
      BKN030CB=

USA.gov is the U.S. government's official web portal to all federal, state and local government web resources and services.